createdAt,value
2022-07-30T00:03:38.490Z,96911.00
2022-07-30T00:08:30.309Z,96907.81
2022-07-30T00:13:22.108Z,96902.25
2022-07-30T00:18:14.168Z,96905.44
2022-07-30T00:23:07.898Z,96903.34
2022-07-30T00:27:59.771Z,96911.81
2022-07-30T00:32:53.864Z,96907.81
2022-07-30T00:37:45.692Z,96911.81
2022-07-30T00:42:47.480Z,96915.53
2022-07-30T00:47:40.808Z,96916.84
2022-07-30T00:52:33.500Z,96928.78
2022-07-30T00:57:27.008Z,96922.97
2022-07-30T01:02:18.942Z,96925.59
2022-07-30T01:07:11.692Z,96920.81
2022-07-30T01:12:06.168Z,96924.50
2022-07-30T01:16:58.645Z,96921.03
2022-07-30T01:22:09.494Z,96920.50
2022-07-30T01:27:02.941Z,96914.66
2022-07-30T01:32:00.107Z,96913.09
2022-07-30T01:36:52.455Z,96914.34
2022-07-30T01:41:44.868Z,96910.38
2022-07-30T01:46:39.452Z,96912.22
2022-07-30T01:51:37.267Z,96909.06
2022-07-30T01:56:31.934Z,96907.53
2022-07-30T02:01:26.733Z,96911.78
2022-07-30T02:06:26.403Z,96908.06
2022-07-30T02:11:38.942Z,96910.19
2022-07-30T02:16:38.071Z,96905.19
2022-07-30T02:21:41.337Z,96912.13
2022-07-30T02:26:48.598Z,96911.81
2022-07-30T02:31:41.687Z,96915.00
2022-07-30T02:36:37.078Z,96917.69
2022-07-30T02:41:31.608Z,96922.16
2022-07-30T02:46:27.432Z,96926.72
2022-07-30T02:51:21.734Z,96917.13
2022-07-30T02:56:16.038Z,96920.06
2022-07-30T03:01:11.068Z,96922.16
2022-07-30T03:06:05.761Z,96927.53
2022-07-30T03:10:58.346Z,96920.59
2022-07-30T03:15:52.868Z,96930.94
2022-07-30T03:20:54.725Z,96933.56
2022-07-30T03:25:59.682Z,96928.28
2022-07-30T03:30:54.806Z,96928.75
2022-07-30T03:35:49.421Z,96932.72
2022-07-30T03:40:46.277Z,96945.69
2022-07-30T03:45:44.578Z,96944.16
2022-07-30T03:50:40.149Z,96946.34
2022-07-30T03:55:33.440Z,96947.91
2022-07-30T04:00:28.871Z,96944.19
2022-07-30T04:05:21.950Z,96949.00
2022-07-30T04:10:16.185Z,96954.81
2022-07-30T04:16:37.262Z,96961.72
2022-07-30T04:20:27.541Z,96962.50
2022-07-30T04:25:24.140Z,96980.31
2022-07-30T04:30:18.633Z,96984.28
2022-07-30T04:35:11.215Z,96982.72
2022-07-30T04:40:15.538Z,96986.41
2022-07-30T04:45:08.258Z,96989.13
2022-07-30T04:50:07.446Z,96995.13
2022-07-30T04:55:06.088Z,96999.72
2022-07-30T04:59:58.504Z,96997.22
2022-07-30T05:04:51.710Z,97011.50
2022-07-30T05:09:44.056Z,97011.16
2022-07-30T05:14:36.213Z,97012.09
2022-07-30T05:19:28.090Z,97008.78
2022-07-30T05:24:20.968Z,97022.44
2022-07-30T05:29:19.558Z,97021.63
2022-07-30T05:34:12.283Z,97026.13
2022-07-30T05:39:04.301Z,97025.38
2022-07-30T05:44:04.514Z,97028.41
2022-07-30T05:48:57.311Z,97036.44
2022-07-30T05:53:49.658Z,97037.00
2022-07-30T05:58:46.410Z,97039.38
2022-07-30T06:03:38.509Z,97046.84
2022-07-30T06:08:30.411Z,97047.47
2022-07-30T06:13:22.393Z,97048.22
2022-07-30T06:18:14.223Z,97054.66
2022-07-30T06:23:09.134Z,97055.47
2022-07-30T06:28:10.698Z,97052.19
2022-07-30T06:33:12.864Z,97063.84
2022-07-30T06:38:07.761Z,97064.53
2022-07-30T06:43:00.180Z,97060.97
2022-07-30T06:47:52.172Z,97065.38
2022-07-30T06:52:46.348Z,97057.78
2022-07-30T06:57:42.481Z,97066.97
2022-07-30T07:02:34.979Z,97076.66
2022-07-30T07:07:41.244Z,97075.72
2022-07-30T07:12:34.821Z,97077.88
2022-07-30T07:17:26.633Z,97074.50
2022-07-30T07:22:18.557Z,97069.81
2022-07-30T07:27:15.722Z,97070.75
2022-07-30T07:32:08.299Z,97069.91
2022-07-30T07:37:00.490Z,97070.56
2022-07-30T07:41:52.881Z,97073.19
2022-07-30T07:46:44.689Z,97082.41
2022-07-30T07:51:48.215Z,97076.44
2022-07-30T07:56:41.208Z,97083.22
2022-07-30T08:01:33.640Z,97078.38
2022-07-30T08:06:25.741Z,97082.22
2022-07-30T08:11:18.017Z,97085.09
2022-07-30T08:16:12.069Z,97086.09
2022-07-30T08:21:05.390Z,97086.38
2022-07-30T08:25:59.064Z,97082.41
2022-07-30T08:30:51.122Z,97083.22
2022-07-30T08:35:51.774Z,97082.81
2022-07-30T08:40:51.055Z,97086.03
2022-07-30T08:45:47.573Z,97085.56
2022-07-30T09:00:53.332Z,97091.25
2022-07-30T09:05:46.664Z,97087.06
2022-07-30T09:10:38.595Z,97082.41
2022-07-30T09:15:41.994Z,97077.09
2022-07-30T09:20:35.841Z,97081.97
2022-07-30T09:25:39.661Z,97084.53
2022-07-30T09:30:55.593Z,97085.63
2022-07-30T09:35:58.218Z,97078.06
2022-07-30T09:40:57.362Z,97072.91
2022-07-30T09:45:57.428Z,97070.06
2022-07-30T09:50:53.774Z,97068.47
2022-07-30T10:01:01.270Z,97069.09
2022-07-30T10:06:03.033Z,97062.66
2022-07-30T10:10:56.027Z,97057.78
2022-07-30T10:15:51.112Z,97060.41
2022-07-30T10:20:43.753Z,97063.63
2022-07-30T10:25:37.175Z,97044.16
2022-07-30T10:30:41.918Z,97035.50
2022-07-30T10:35:38.105Z,97041.56
2022-07-30T10:40:40.880Z,97045.00
2022-07-30T10:46:05.351Z,97044.38
2022-07-30T10:51:06.929Z,97030.44
2022-07-30T10:56:16.894Z,97041.53
2022-07-30T11:01:18.032Z,97036.31
2022-07-30T11:06:16.165Z,97040.59
2022-07-30T11:12:01.583Z,97045.97
2022-07-30T11:16:43.940Z,97039.09
2022-07-30T11:21:36.417Z,97032.78
2022-07-30T11:26:43.734Z,97038.13
2022-07-30T11:31:56.802Z,97037.03
2022-07-30T11:37:22.087Z,97025.69
2022-07-30T11:42:33.318Z,97018.66
2022-07-30T11:47:28.822Z,97028.38
2022-07-30T11:52:25.910Z,97028.66
2022-07-30T11:57:18.041Z,97027.00
2022-07-30T12:02:10.605Z,97026.22
2022-07-30T12:07:02.833Z,97030.72
2022-07-30T12:11:57.094Z,97021.47
2022-07-30T12:16:54.452Z,97016.72
2022-07-30T12:21:50.983Z,97026.88
2022-07-30T12:26:48.875Z,97023.72
2022-07-30T12:31:45.495Z,97016.53
2022-07-30T12:36:37.279Z,97015.97
2022-07-30T13:20:22.767Z,96998.38
